Time;durP1;ratioP1;P1;durP2;ratioP2;P2;SDS_P1;SDS_P2;PMS_P1;PMS_P2;Temp;Humidity;BMP_temperature;BMP_pressure;BME280_temperature;BME280_humidity;BME280_pressure;Samples;Min_cycle;Max_cycle;Signal;HPM_P1;HPM_P2
2022/01/06 00:00:14;;;;;;;;;;;;;;;20.99;42.70;101801.03;7281812;19;152021;-51
2022/01/06 00:02:41;;;;;;;;;;;;;;;21.01;42.85;101800.75;7280181;19;152877;-50
2022/01/06 00:05:09;;;;;;;;;;;;;;;21.01;42.71;101801.59;7276826;19;154152;-50
2022/01/06 00:07:36;;;;;;;;;;;;;;;21.02;42.84;101797.66;7278346;19;152327;-50
2022/01/06 00:10:05;;;;;;;;;;;;;;;21.03;43.16;101790.09;7287880;19;153287;-50
2022/01/06 00:12:42;;;;;;;;;;;;;;;21.03;42.69;101790.91;7252900;19;153426;-50
2022/01/06 00:15:21;;;;;;;;;;;;;;;21.03;42.79;101796.50;7280489;19;152769;-50
2022/01/06 00:25:18;;;;;;;;;;;;;;;21.02;42.56;101785.59;7277925;19;153332;-51
2022/01/06 00:27:45;;;;;;;;;;;;;;;21.01;42.43;101792.34;7281968;19;151949;-50
2022/01/06 00:30:12;;;;;;;;;;;;;;;20.98;42.50;101801.34;7282917;19;153849;-50
2022/01/06 00:32:39;;;;;;;;;;;;;;;20.99;42.46;101800.19;7288595;19;154062;-51
2022/01/06 00:35:06;;;;;;;;;;;;;;;20.97;42.34;101803.31;7280768;19;152062;-51
2022/01/06 00:37:33;;;;;;;;;;;;;;;20.95;41.98;101796.28;7279317;19;156297;-50
2022/01/06 00:40:00;;;;;;;;;;;;;;;20.94;42.07;101795.44;7281292;19;152442;-49
2022/01/06 00:42:27;;;;;;;;;;;;;;;20.91;42.32;101793.22;7257994;19;152684;-49
2022/01/06 00:44:54;;;;;;;;;;;;;;;20.90;43.09;101793.50;7277242;19;154146;-49
2022/01/06 00:47:21;;;;;;;;;;;;;;;20.88;42.63;101792.97;7280164;19;151856;-48
2022/01/06 00:49:48;;;;;;;;;;;;;;;20.86;42.73;101802.53;7278160;19;153524;-49
2022/01/06 00:52:15;;;;;;;;;;;;;;;20.84;42.28;101799.19;7276422;19;154080;-49
2022/01/06 00:54:42;;;;;;;;;;;;;;;20.82;42.32;101797.78;7287514;19;152047;-49
2022/01/06 00:57:09;;;;;;;;;;;;;;;20.79;42.70;101793.59;7279023;19;153894;-48
2022/01/06 00:59:36;;;;;;;;;;;;;;;20.77;42.41;101793.03;7279234;19;152752;-48
2022/01/06 01:02:04;;;;;;;;;;;;;;;20.73;42.59;101796.72;7276627;19;153301;-48
2022/01/06 01:04:31;;;;;;;;;;;;;;;20.71;43.01;101796.19;7278788;19;153562;-49
2022/01/06 01:06:58;;;;;;;;;;;;;;;20.67;43.14;101798.69;7278630;19;153597;-49
2022/01/06 01:09:25;;;;;;;;;;;;;;;20.65;43.00;101792.56;7279778;19;153468;-49
2022/01/06 01:11:53;;;;;;;;;;;;;;;20.62;42.84;101795.09;7263459;19;154296;-49
2022/01/06 01:16:55;;;;;;;;;;;;;;;20.57;43.28;101797.94;7283555;19;152708;-49
2022/01/06 01:19:22;;;;;;;;;;;;;;;20.54;43.39;101798.50;7279975;19;151788;-49
2022/01/06 01:21:49;;;;;;;;;;;;;;;20.51;43.40;101804.69;7277422;19;152618;-48
2022/01/06 01:24:16;;;;;;;;;;;;;;;20.49;43.43;101812.56;7277816;19;152599;-48
2022/01/06 01:26:44;;;;;;;;;;;;;;;20.47;43.56;101817.63;7279078;19;152118;-49
2022/01/06 01:31:45;;;;;;;;;;;;;;;20.40;43.55;101809.50;7274759;19;154079;-48
2022/01/06 01:34:13;;;;;;;;;;;;;;;20.41;43.44;101817.63;7274010;19;152161;-48
2022/01/06 01:36:42;;;;;;;;;;;;;;;20.36;43.12;101828.88;7279419;19;153217;-48
2022/01/06 01:39:10;;;;;;;;;;;;;;;20.35;43.04;101829.19;7285969;19;153947;-48
2022/01/06 01:41:37;;;;;;;;;;;;;;;20.30;43.16;101821.63;7278361;19;152659;-49
2022/01/06 01:44:11;;;;;;;;;;;;;;;20.28;43.33;101821.03;7255502;19;153573;-48
2022/01/06 01:46:44;;;;;;;;;;;;;;;20.29;42.92;101827.47;7277777;19;152163;-49
2022/01/06 01:51:41;;;;;;;;;;;;;;;20.21;42.83;101812.09;7277047;19;153375;-49
2022/01/06 01:54:08;;;;;;;;;;;;;;;20.18;43.07;101817.41;7276014;19;153123;-48
2022/01/06 01:56:35;;;;;;;;;;;;;;;20.14;43.09;101831.16;7276520;19;153068;-49
2022/01/06 01:59:02;;;;;;;;;;;;;;;20.12;42.70;101818.56;7283089;19;154881;-49
2022/01/06 02:01:29;;;;;;;;;;;;;;;20.09;42.69;101831.16;7275575;19;152684;-49
2022/01/06 02:03:57;;;;;;;;;;;;;;;20.03;42.73;101829.53;7277451;19;154199;-50
2022/01/06 02:06:24;;;;;;;;;;;;;;;19.98;42.90;101830.38;7276485;19;152521;-50
2022/01/06 02:08:51;;;;;;;;;;;;;;;19.94;43.08;101823.63;7272517;19;152658;-49
2022/01/06 02:11:18;;;;;;;;;;;;;;;19.94;43.23;101814.38;7276216;19;155090;-50
2022/01/06 02:13:46;;;;;;;;;;;;;;;19.88;43.29;101813.56;7263317;19;153676;-50
2022/01/06 02:16:20;;;;;;;;;;;;;;;19.84;43.34;101804.03;7273025;19;153444;-50
2022/01/06 02:18:47;;;;;;;;;;;;;;;19.82;43.36;101800.66;7280633;19;153462;-50
2022/01/06 02:21:14;;;;;;;;;;;;;;;19.83;43.23;101799.53;7289696;19;152399;-49
2022/01/06 02:23:41;;;;;;;;;;;;;;;19.81;43.60;101804.56;7279045;19;153587;-50
2022/01/06 02:26:08;;;;;;;;;;;;;;;19.77;43.46;101803.47;7285102;19;152928;-49
2022/01/06 02:28:35;;;;;;;;;;;;;;;19.71;43.76;101809.38;7284473;19;152795;-50
2022/01/06 02:31:02;;;;;;;;;;;;;;;19.69;43.39;101800.38;7282774;19;154175;-49
2022/01/06 02:33:29;;;;;;;;;;;;;;;19.70;43.62;101802.06;7280100;19;152738;-50
2022/01/06 02:35:56;;;;;;;;;;;;;;;19.66;43.27;101801.81;7283004;19;153445;-49
2022/01/06 02:38:23;;;;;;;;;;;;;;;19.61;44.02;101800.97;7281821;19;153606;-49
2022/01/06 02:40:50;;;;;;;;;;;;;;;19.61;43.65;101793.41;7281298;19;151640;-49
2022/01/06 02:43:18;;;;;;;;;;;;;;;19.57;43.56;101789.47;7288205;19;153134;-49
2022/01/06 02:45:46;;;;;;;;;;;;;;;19.54;43.65;101782.47;7257085;19;153208;-49
2022/01/06 02:48:14;;;;;;;;;;;;;;;19.53;43.94;101777.97;7282185;19;151993;-49
2022/01/06 02:50:43;;;;;;;;;;;;;;;19.52;43.50;101775.47;7281977;19;152201;-49
2022/01/06 02:53:11;;;;;;;;;;;;;;;19.49;44.16;101779.66;7283070;19;152218;-49
2022/01/06 02:55:47;;;;;;;;;;;;;;;19.47;44.08;101781.91;7283522;19;152677;-49
2022/01/06 02:58:33;;;;;;;;;;;;;;;19.44;44.01;101778.84;7284488;19;153689;-48
2022/01/06 03:01:00;;;;;;;;;;;;;;;19.42;44.04;101781.88;7282932;19;152214;-48
2022/01/06 03:03:27;;;;;;;;;;;;;;;19.40;44.39;101781.31;7283783;19;153816;-49
2022/01/06 03:05:54;;;;;;;;;;;;;;;19.38;44.07;101782.72;7289749;19;153864;-50
2022/01/06 03:08:23;;;;;;;;;;;;;;;19.36;44.43;101771.78;7280621;19;153608;-49
2022/01/06 03:10:50;;;;;;;;;;;;;;;19.34;44.35;101785.25;7281379;19;152598;-49
2022/01/06 03:13:17;;;;;;;;;;;;;;;19.33;43.98;101793.94;7282937;19;153366;-49
2022/01/06 03:15:44;;;;;;;;;;;;;;;19.28;44.39;101791.13;7278337;19;152665;-48
2022/01/06 03:18:11;;;;;;;;;;;;;;;19.25;44.04;101786.94;7282394;19;154093;-49
2022/01/06 03:20:38;;;;;;;;;;;;;;;19.24;44.29;101784.41;7283145;19;152264;-49
2022/01/06 03:23:05;;;;;;;;;;;;;;;19.22;43.99;101779.06;7283486;19;153290;-49
2022/01/06 03:25:32;;;;;;;;;;;;;;;19.20;44.09;101783.28;7281749;19;153581;-49
2022/01/06 03:27:58;;;;;;;;;;;;;;;19.15;44.43;101791.66;7291853;19;151937;-49
2022/01/06 03:30:25;;;;;;;;;;;;;;;19.13;44.04;101780.72;7284114;19;154058;-49
2022/01/06 03:32:52;;;;;;;;;;;;;;;19.10;44.33;101781.31;7283361;19;151968;-49
2022/01/06 03:35:20;;;;;;;;;;;;;;;19.08;44.32;101784.38;7282837;19;152989;-49
2022/01/06 03:37:47;;;;;;;;;;;;;;;19.06;44.07;101778.22;7280207;19;154218;-50
2022/01/06 03:40:14;;;;;;;;;;;;;;;19.05;44.50;101779.34;7283315;19;152311;-49
2022/01/06 03:42:41;;;;;;;;;;;;;;;19.03;44.16;101778.75;7281586;19;152763;-49
2022/01/06 03:45:09;;;;;;;;;;;;;;;19.01;44.15;101782.97;7282053;19;153782;-48
2022/01/06 03:47:36;;;;;;;;;;;;;;;18.99;44.56;101790.78;7280988;19;152648;-49
2022/01/06 03:50:04;;;;;;;;;;;;;;;18.92;44.38;101793.03;7288587;19;153314;-49
2022/01/06 03:52:31;;;;;;;;;;;;;;;18.90;44.27;101782.09;7281362;19;152337;-49
2022/01/06 03:54:57;;;;;;;;;;;;;;;18.90;44.54;101776.50;7279052;19;152839;-48
2022/01/06 03:57:24;;;;;;;;;;;;;;;18.86;44.11;101780.97;7278853;19;154059;-49
2022/01/06 03:59:51;;;;;;;;;;;;;;;18.84;44.71;101787.97;7281918;19;152666;-50
2022/01/06 04:02:18;;;;;;;;;;;;;;;18.79;44.36;101793.56;7285687;19;153248;-48
2022/01/06 04:04:45;;;;;;;;;;;;;;;18.78;44.33;101787.13;7282477;19;153811;-49
2022/01/06 04:07:12;;;;;;;;;;;;;;;18.77;44.62;101791.03;7282191;19;152157;-49
2022/01/06 04:09:38;;;;;;;;;;;;;;;18.72;44.62;101784.56;7289192;19;152811;-49
2022/01/06 04:12:09;;;;;;;;;;;;;;;18.69;44.54;101790.72;7283766;19;152046;-49
2022/01/06 04:14:36;;;;;;;;;;;;;;;18.61;44.80;101784.56;7279433;19;153490;-49
2022/01/06 04:17:07;;;;;;;;;;;;;;;18.58;44.64;101779.50;7277563;19;152825;-49
2022/01/06 04:19:35;;;;;;;;;;;;;;;18.59;44.82;101781.19;7281257;19;152358;-49
2022/01/06 04:22:03;;;;;;;;;;;;;;;18.58;44.75;101785.09;7280860;19;152831;-48
2022/01/06 04:24:29;;;;;;;;;;;;;;;18.55;44.51;101788.47;7280733;19;152209;-49
2022/01/06 04:26:57;;;;;;;;;;;;;;;18.49;44.86;101792.31;7279630;19;152338;-49
2022/01/06 04:29:24;;;;;;;;;;;;;;;18.48;44.65;101785.06;7280537;19;153560;-49
2022/01/06 04:31:50;;;;;;;;;;;;;;;18.48;44.73;101784.22;7288695;19;153466;-50
2022/01/06 04:34:17;;;;;;;;;;;;;;;18.43;44.96;101786.97;7279377;19;153665;-48
2022/01/06 04:36:50;;;;;;;;;;;;;;;18.43;44.66;101784.19;7278101;19;153594;-49
2022/01/06 04:39:17;;;;;;;;;;;;;;;18.38;44.88;101776.63;7281274;19;151967;-49
2022/01/06 04:41:44;;;;;;;;;;;;;;;18.36;44.74;101773.22;7281391;19;153237;-48
2022/01/06 04:44:11;;;;;;;;;;;;;;;18.36;44.94;101778.00;7280830;19;153977;-49
2022/01/06 04:46:38;;;;;;;;;;;;;;;18.35;44.90;101781.94;7281095;19;152099;-50
2022/01/06 04:49:05;;;;;;;;;;;;;;;18.35;45.26;101779.94;7282399;19;152839;-50
2022/01/06 04:51:32;;;;;;;;;;;;;;;18.38;45.39;101787.81;7279710;19;153611;-49
2022/01/06 04:53:59;;;;;;;;;;;;;;;18.41;45.72;101773.25;7287321;19;151822;-49
2022/01/06 04:56:26;;;;;;;;;;;;;;;18.43;45.40;101768.25;7278732;19;152962;-50
2022/01/06 04:58:53;;;;;;;;;;;;;;;18.48;45.91;101778.63;7280996;19;152089;-49
2022/01/06 05:01:19;;;;;;;;;;;;;;;18.52;46.10;101771.34;7281256;19;152857;-50
2022/01/06 05:03:47;;;;;;;;;;;;;;;18.56;45.85;101775.31;7280971;19;153820;-49
2022/01/06 05:06:15;;;;;;;;;;;;;;;18.60;46.18;101771.69;7283315;19;151864;-49
2022/01/06 05:08:41;;;;;;;;;;;;;;;18.64;46.45;101767.22;7278616;19;152430;-49
2022/01/06 05:11:11;;;;;;;;;;;;;;;18.71;46.68;101768.91;7275791;19;152457;-49
2022/01/06 05:13:38;;;;;;;;;;;;;;;18.76;47.01;101772.53;7279269;19;152050;-48
2022/01/06 05:16:05;;;;;;;;;;;;;;;18.83;47.12;101775.09;7286455;19;153389;-49
2022/01/06 05:18:32;;;;;;;;;;;;;;;18.87;46.76;101765.03;7280495;19;151995;-49
2022/01/06 05:20:59;;;;;;;;;;;;;;;18.92;46.57;101768.69;7279004;19;152687;-49
2022/01/06 05:23:26;;;;;;;;;;;;;;;18.98;46.57;101767.56;7277236;19;153255;-50
2022/01/06 05:25:54;;;;;;;;;;;;;;;19.04;46.83;101772.03;7280342;19;152204;-49
2022/01/06 05:28:21;;;;;;;;;;;;;;;19.09;46.47;101769.25;7280365;19;153158;-49
2022/01/06 05:30:48;;;;;;;;;;;;;;;19.15;46.43;101767.31;7281888;19;152958;-49
2022/01/06 05:33:15;;;;;;;;;;;;;;;19.20;46.29;101763.66;7281576;19;151898;-49
2022/01/06 05:35:42;;;;;;;;;;;;;;;19.26;46.37;101754.97;7275076;19;153711;-49
2022/01/06 05:38:09;;;;;;;;;;;;;;;19.32;46.23;101755.81;7288160;19;154039;-48
2022/01/06 05:40:36;;;;;;;;;;;;;;;19.38;46.66;101754.69;7280669;19;152747;-49
2022/01/06 05:43:06;;;;;;;;;;;;;;;19.43;45.95;101743.50;7277105;19;154392;-49
2022/01/06 05:45:33;;;;;;;;;;;;;;;19.48;45.82;101740.72;7277756;19;151662;-48
2022/01/06 05:48:00;;;;;;;;;;;;;;;19.53;45.72;101744.31;7283239;19;153122;-49
2022/01/06 05:50:27;;;;;;;;;;;;;;;19.58;45.39;101742.66;7284674;19;152178;-50
2022/01/06 05:52:54;;;;;;;;;;;;;;;19.64;45.50;101741.53;7287598;19;152261;-48
2022/01/06 05:55:22;;;;;;;;;;;;;;;19.69;45.49;101752.72;7283029;19;153461;-48
2022/01/06 05:57:50;;;;;;;;;;;;;;;19.73;45.01;101746.28;7284634;19;153573;-48
2022/01/06 06:00:17;;;;;;;;;;;;;;;19.79;45.62;101741.50;7293900;19;152610;-49
2022/01/06 06:02:47;;;;;;;;;;;;;;;19.83;45.44;101765.88;7284714;19;154443;-49
2022/01/06 06:05:14;;;;;;;;;;;;;;;19.86;44.94;101751.28;7285177;19;151756;-49
2022/01/06 06:07:41;;;;;;;;;;;;;;;19.91;45.12;101745.66;7285389;19;152948;-49
2022/01/06 06:10:08;;;;;;;;;;;;;;;19.96;45.03;101742.84;7287010;19;153054;-49
2022/01/06 06:12:35;;;;;;;;;;;;;;;20.00;44.93;101751.53;7285113;19;151706;-49
2022/01/06 06:15:02;;;;;;;;;;;;;;;20.05;44.42;101748.72;7284054;19;153281;-49
2022/01/06 06:17:29;;;;;;;;;;;;;;;20.09;44.58;101746.16;7282129;19;153475;-49
2022/01/06 06:19:56;;;;;;;;;;;;;;;20.13;44.34;101744.47;7293240;19;152246;-49
2022/01/06 06:22:23;;;;;;;;;;;;;;;20.17;44.05;101746.41;7284767;19;154322;-49
2022/01/06 06:24:50;;;;;;;;;;;;;;;20.20;44.48;101737.44;7283453;19;152013;-49
2022/01/06 06:27:17;;;;;;;;;;;;;;;20.23;44.44;101739.66;7282429;19;153409;-49
2022/01/06 06:29:44;;;;;;;;;;;;;;;20.27;44.39;101745.53;7284462;19;153899;-49
2022/01/06 06:32:10;;;;;;;;;;;;;;;20.32;44.40;101759.56;7283818;19;151730;-49
2022/01/06 06:34:37;;;;;;;;;;;;;;;20.34;44.01;101752.56;7284396;19;152633;-49
2022/01/06 06:37:04;;;;;;;;;;;;;;;20.39;44.43;101757.31;7283893;19;153331;-50
2022/01/06 06:39:31;;;;;;;;;;;;;;;20.42;44.64;101749.16;7287398;19;151555;-49
2022/01/06 06:41:58;;;;;;;;;;;;;;;20.47;44.42;101739.88;7293645;19;152776;-48
2022/01/06 06:44:24;;;;;;;;;;;;;;;20.49;44.07;101742.38;7284422;19;152027;-50
2022/01/06 06:46:52;;;;;;;;;;;;;;;20.52;44.13;101742.66;7283671;19;153120;-49
2022/01/06 06:49:19;;;;;;;;;;;;;;;20.56;43.68;101734.47;7281638;19;154388;-49
2022/01/06 06:51:45;;;;;;;;;;;;;;;20.58;44.08;101733.03;7284950;19;152755;-49
2022/01/06 06:54:13;;;;;;;;;;;;;;;20.63;43.64;101738.63;7284794;19;152607;-49
2022/01/06 06:56:41;;;;;;;;;;;;;;;20.66;43.66;101723.19;7285909;19;153341;-49
2022/01/06 06:59:08;;;;;;;;;;;;;;;20.69;43.97;101716.97;7282546;19;152470;-50
2022/01/06 07:01:35;;;;;;;;;;;;;;;20.73;43.46;101706.84;7282086;19;152670;-49
2022/01/06 07:04:02;;;;;;;;;;;;;;;20.75;43.67;101711.06;7289363;19;153728;-49
2022/01/06 07:06:29;;;;;;;;;;;;;;;20.77;43.66;101714.41;7281906;19;152870;-50
2022/01/06 07:08:56;;;;;;;;;;;;;;;20.80;43.48;101708.19;7280456;19;152541;-49
2022/01/06 07:11:23;;;;;;;;;;;;;;;20.83;43.38;101716.03;7282547;19;152546;-50
2022/01/06 07:13:49;;;;;;;;;;;;;;;20.85;43.48;101727.81;7284942;19;152884;-49
2022/01/06 07:16:16;;;;;;;;;;;;;;;20.89;43.13;101730.06;7277774;19;153247;-49
2022/01/06 07:18:43;;;;;;;;;;;;;;;20.92;43.66;101733.13;7282406;19;152383;-49
2022/01/06 07:21:10;;;;;;;;;;;;;;;20.95;43.62;101735.34;7280935;19;153320;-49
2022/01/06 07:23:37;;;;;;;;;;;;;;;20.98;43.56;101731.13;7280125;19;153268;-49
2022/01/06 07:26:04;;;;;;;;;;;;;;;21.01;43.18;101738.94;7290994;19;152416;-50
2022/01/06 07:28:31;;;;;;;;;;;;;;;21.04;43.14;101738.34;7282744;19;154145;-49
2022/01/06 07:30:58;;;;;;;;;;;;;;;21.05;42.75;101746.50;7283599;19;151992;-49
2022/01/06 07:33:25;;;;;;;;;;;;;;;21.07;42.63;101754.66;7282010;19;153492;-49
2022/01/06 07:35:51;;;;;;;;;;;;;;;21.08;42.29;101747.88;7280423;19;153284;-50
2022/01/06 07:38:18;;;;;;;;;;;;;;;21.10;42.44;101743.66;7282878;19;151735;-49
2022/01/06 07:40:45;;;;;;;;;;;;;;;21.13;42.05;101748.72;7282001;19;153200;-49
2022/01/06 07:43:12;;;;;;;;;;;;;;;21.14;42.02;101749.56;7279751;19;152307;-49
2022/01/06 07:45:39;;;;;;;;;;;;;;;21.15;41.69;101751.25;7282729;19;152040;-49
2022/01/06 07:48:15;;;;;;;;;;;;;;;21.16;41.80;101759.38;7290768;19;153012;-49
2022/01/06 07:50:43;;;;;;;;;;;;;;;21.19;41.71;101757.94;7283968;19;152199;-50
2022/01/06 07:53:10;;;;;;;;;;;;;;;21.02;40.17;101761.16;7282858;19;152175;-49
2022/01/06 07:55:38;;;;;;;;;;;;;;;20.89;39.68;101766.56;7280082;19;154204;-49
2022/01/06 07:58:05;;;;;;;;;;;;;;;20.71;36.58;101763.31;7282906;19;152136;-49
2022/01/06 08:00:32;;;;;;;;;;;;;;;20.79;36.67;101770.28;7281171;19;152303;-49
2022/01/06 08:02:59;;;;;;;;;;;;;;;20.83;36.64;101766.59;7281670;19;154394;-50
2022/01/06 08:05:27;;;;;;;;;;;;;;;20.83;37.00;101772.22;7282864;19;153005;-50
2022/01/06 08:07:54;;;;;;;;;;;;;;;20.87;37.27;101769.66;7278212;19;153107;-50
2022/01/06 08:10:22;;;;;;;;;;;;;;;20.88;36.88;101762.94;7285932;19;151729;-50
2022/01/06 08:12:49;;;;;;;;;;;;;;;20.88;37.19;101770.50;7280450;19;153896;-50
2022/01/06 08:15:16;;;;;;;;;;;;;;;20.88;37.22;101767.69;7280503;19;154076;-50
2022/01/06 08:17:43;;;;;;;;;;;;;;;20.88;37.40;101771.34;7280858;19;152145;-50
2022/01/06 08:20:14;;;;;;;;;;;;;;;20.90;37.11;101766.25;7281327;19;153746;-50
2022/01/06 08:22:41;;;;;;;;;;;;;;;20.91;36.90;101767.94;7281494;19;153360;-49
2022/01/06 08:25:08;;;;;;;;;;;;;;;20.91;37.28;101767.09;7280492;19;152094;-50
2022/01/06 08:27:35;;;;;;;;;;;;;;;20.95;37.24;101768.19;7279918;19;152848;-50
2022/01/06 08:30:03;;;;;;;;;;;;;;;20.94;37.18;101760.94;7286699;19;152514;-50
2022/01/06 08:32:30;;;;;;;;;;;;;;;20.93;37.11;101751.66;7278965;19;152667;-49
2022/01/06 08:34:57;;;;;;;;;;;;;;;20.96;37.46;101764.25;7280137;19;153346;-49
2022/01/06 08:37:23;;;;;;;;;;;;;;;21.04;38.80;101763.63;7281943;19;152091;-50
2022/01/06 08:39:50;;;;;;;;;;;;;;;20.99;37.24;101749.63;7281453;19;152628;-50
2022/01/06 08:42:17;;;;;;;;;;;;;;;20.99;37.36;101746.81;7279953;19;154203;-50
2022/01/06 08:44:44;;;;;;;;;;;;;;;20.99;37.21;101752.44;7279263;19;152353;-50
2022/01/06 08:47:11;;;;;;;;;;;;;;;20.99;37.45;101747.66;7281540;19;152999;-49
2022/01/06 08:49:40;;;;;;;;;;;;;;;21.00;37.83;101746.53;7279362;19;152220;-50
2022/01/06 08:52:08;;;;;;;;;;;;;;;21.01;37.35;101751.03;7286092;19;152113;-51
2022/01/06 08:54:35;;;;;;;;;;;;;;;21.02;37.39;101743.44;7280885;19;153784;-50
2022/01/06 08:57:02;;;;;;;;;;;;;;;20.89;37.74;101744.09;7276390;19;152099;-50
2022/01/06 08:59:29;;;;;;;;;;;;;;;20.83;37.39;101730.09;7279184;19;152614;-50
2022/01/06 09:01:56;;;;;;;;;;;;;;;20.81;37.56;101723.06;7279578;19;154379;-50
2022/01/06 09:04:23;;;;;;;;;;;;;;;20.85;37.54;101727.81;7252199;19;153056;-50
2022/01/06 09:06:51;;;;;;;;;;;;;;;20.87;37.04;101733.16;7276541;19;153001;-50
2022/01/06 09:09:18;;;;;;;;;;;;;;;20.91;36.89;101727.78;7273814;19;153262;-50
2022/01/06 09:11:45;;;;;;;;;;;;;;;20.92;36.86;101719.06;7276300;19;152776;-50
2022/01/06 09:14:12;;;;;;;;;;;;;;;20.92;36.94;101709.81;7282009;19;152684;-50
2022/01/06 09:16:40;;;;;;;;;;;;;;;20.94;36.38;101711.16;7275311;19;151532;-50
2022/01/06 09:19:07;;;;;;;;;;;;;;;20.95;36.61;101704.44;7274729;19;152528;-50
2022/01/06 09:21:34;;;;;;;;;;;;;;;20.97;36.94;101706.97;7277562;19;153666;-50
2022/01/06 09:24:04;;;;;;;;;;;;;;;20.97;36.82;101698.53;7282452;19;152618;-50
2022/01/06 09:26:31;;;;;;;;;;;;;;;20.97;36.40;101695.72;7281233;19;153637;-50
2022/01/06 09:28:58;;;;;;;;;;;;;;;20.98;36.39;101697.41;7282962;19;153994;-50
2022/01/06 09:31:25;;;;;;;;;;;;;;;21.01;36.53;101694.00;7285544;19;152250;-50
2022/01/06 09:33:52;;;;;;;;;;;;;;;21.00;36.32;101693.16;7286353;19;152759;-50
2022/01/06 09:36:19;;;;;;;;;;;;;;;21.01;36.07;101685.56;7291041;19;153431;-50
2022/01/06 09:38:46;;;;;;;;;;;;;;;21.04;36.59;101682.16;7285459;19;152734;-50
2022/01/06 09:41:14;;;;;;;;;;;;;;;21.04;36.42;101683.00;7282432;19;152574;-51
2022/01/06 09:43:41;;;;;;;;;;;;;;;21.04;36.62;101668.13;7283238;19;152102;-50
2022/01/06 09:46:13;;;;;;;;;;;;;;;21.08;36.45;101660.75;7285651;19;152831;-50
2022/01/06 09:48:41;;;;;;;;;;;;;;;21.08;36.51;101655.16;7282958;19;153981;-50
2022/01/06 09:51:10;;;;;;;;;;;;;;;21.09;36.31;101649.25;7284950;19;152205;-51
2022/01/06 09:53:37;;;;;;;;;;;;;;;21.10;35.97;101633.22;7285304;19;152257;-50
2022/01/06 09:56:04;;;;;;;;;;;;;;;21.10;36.27;101636.88;7279985;19;154150;-50
2022/01/06 09:58:31;;;;;;;;;;;;;;;21.11;36.41;101632.94;7290668;19;151703;-50
2022/01/06 10:00:58;;;;;;;;;;;;;;;21.13;36.08;101641.09;7281691;19;154130;-50
2022/01/06 10:03:29;;;;;;;;;;;;;;;21.14;36.19;101635.19;7282449;19;152000;-50
2022/01/06 10:06:07;;;;;;;;;;;;;;;21.15;35.74;101645.28;7281582;19;153687;-51
2022/01/06 10:08:35;;;;;;;;;;;;;;;21.15;36.13;101650.91;7282387;19;154724;-51
2022/01/06 10:11:05;;;;;;;;;;;;;;;21.15;35.96;101641.63;7286499;19;151711;-50
2022/01/06 10:13:32;;;;;;;;;;;;;;;21.15;35.89;101644.44;7288319;19;153452;-51
2022/01/06 10:15:59;;;;;;;;;;;;;;;21.15;35.88;101650.06;7281244;19;153553;-50
2022/01/06 10:18:26;;;;;;;;;;;;;;;21.13;35.79;101646.69;7291623;19;152235;-50
2022/01/06 10:20:53;;;;;;;;;;;;;;;21.12;35.63;101640.22;7284503;19;154856;-50
2022/01/06 10:23:20;;;;;;;;;;;;;;;21.11;35.54;101640.53;7288489;19;152272;-50
2022/01/06 10:25:49;;;;;;;;;;;;;;;21.06;35.28;101635.78;7280537;19;152034;-50
2022/01/06 10:28:22;;;;;;;;;;;;;;;21.08;35.88;101632.66;7282971;19;152894;-51
2022/01/06 10:30:49;;;;;;;;;;;;;;;21.05;35.67;101633.28;7282045;19;152724;-50
2022/01/06 10:33:17;;;;;;;;;;;;;;;21.01;35.68;101624.59;7280409;19;153516;-50
2022/01/06 10:35:45;;;;;;;;;;;;;;;20.99;35.40;101621.22;7280182;19;153591;-50
2022/01/06 10:38:11;;;;;;;;;;;;;;;20.98;35.55;101618.75;7285920;19;151914;-50
2022/01/06 10:40:39;;;;;;;;;;;;;;;20.93;35.33;101611.19;7289694;19;153198;-51
2022/01/06 10:43:28;;;;;;;;;;;;;;;20.91;35.56;101604.19;7279933;19;152085;-50
2022/01/06 10:46:01;;;;;;;;;;;;;;;20.86;35.69;101603.09;7281841;19;153009;-51
2022/01/06 10:48:28;;;;;;;;;;;;;;;20.83;35.76;101600.88;7282748;19;153870;-50
2022/01/06 10:50:57;;;;;;;;;;;;;;;20.80;35.31;101600.66;7284563;19;151816;-50
2022/01/06 10:53:26;;;;;;;;;;;;;;;20.76;35.51;101586.31;7283587;19;152800;-50
2022/01/06 10:55:53;;;;;;;;;;;;;;;20.73;35.38;101583.28;7284959;19;153969;-50
2022/01/06 10:58:21;;;;;;;;;;;;;;;20.69;35.52;101576.59;7282948;19;152696;-50
2022/01/06 11:00:52;;;;;;;;;;;;;;;20.65;35.53;101572.69;7281437;19;153317;-50
2022/01/06 11:03:20;;;;;;;;;;;;;;;20.63;35.73;101564.53;7285695;19;154559;-50
2022/01/06 11:05:51;;;;;;;;;;;;;;;20.59;35.73;101563.47;7277417;19;152793;-50
2022/01/06 11:08:21;;;;;;;;;;;;;;;20.57;35.72;101562.09;7278089;19;153263;-50
2022/01/06 11:11:01;;;;;;;;;;;;;;;20.52;35.42;101557.38;7283686;19;153518;-50
2022/01/06 11:13:30;;;;;;;;;;;;;;;20.51;35.80;101552.88;7283796;19;153312;-50
2022/01/06 11:15:57;;;;;;;;;;;;;;;20.51;35.73;101541.66;7281439;19;152677;-50
2022/01/06 11:18:24;;;;;;;;;;;;;;;20.50;35.73;101534.34;7282762;19;152317;-50
2022/01/06 11:20:52;;;;;;;;;;;;;;;20.52;36.07;101523.69;7282258;19;152777;-50
2022/01/06 11:23:26;;;;;;;;;;;;;;;20.50;36.16;101514.69;7280996;19;153807;-50
2022/01/06 11:26:05;;;;;;;;;;;;;;;20.52;36.13;101514.41;7294563;19;151762;-51
2022/01/06 11:28:32;;;;;;;;;;;;;;;20.53;35.85;101500.09;7283409;19;153391;-50
2022/01/06 11:31:12;;;;;;;;;;;;;;;20.56;36.03;101495.84;7281161;19;152239;-50
2022/01/06 11:33:40;;;;;;;;;;;;;;;20.58;36.14;101494.41;7282660;19;153022;-50
2022/01/06 11:36:11;;;;;;;;;;;;;;;20.62;36.01;101501.13;7280987;19;152687;-50
2022/01/06 11:38:44;;;;;;;;;;;;;;;20.66;36.20;101496.59;7280328;19;151875;-50
2022/01/06 11:41:11;;;;;;;;;;;;;;;20.67;36.03;101489.00;7280015;19;152291;-50
2022/01/06 11:43:40;;;;;;;;;;;;;;;20.70;36.50;101479.97;7279249;19;152633;-50
2022/01/06 11:46:07;;;;;;;;;;;;;;;20.70;36.14;101483.63;7280876;19;152018;-50
2022/01/06 11:48:37;;;;;;;;;;;;;;;20.71;35.95;101474.06;7289556;19;154300;-50
2022/01/06 11:51:04;;;;;;;;;;;;;;;20.71;36.13;101474.06;7284658;19;151998;-50
2022/01/06 11:53:32;;;;;;;;;;;;;;;20.71;35.84;101465.66;7282159;19;154051;-50
2022/01/06 11:56:11;;;;;;;;;;;;;;;20.73;36.24;101462.53;7277567;19;153910;-50
2022/01/06 11:58:38;;;;;;;;;;;;;;;20.71;35.60;101462.00;7282272;19;152376;-50
2022/01/06 12:01:07;;;;;;;;;;;;;;;20.72;35.72;101469.28;7282712;19;152820;-50
2022/01/06 12:03:35;;;;;;;;;;;;;;;20.70;35.50;101455.56;7278130;19;153946;-50
2022/01/06 12:06:02;;;;;;;;;;;;;;;20.69;35.33;101461.44;7279171;19;152552;-50
2022/01/06 12:08:32;;;;;;;;;;;;;;;20.68;35.72;101465.38;7275308;19;153427;-50
2022/01/06 12:10:59;;;;;;;;;;;;;;;20.65;35.47;101464.03;7288407;19;153342;-50
2022/01/06 12:13:26;;;;;;;;;;;;;;;20.63;35.29;101471.88;7279540;19;151983;-50
2022/01/06 12:15:54;;;;;;;;;;;;;;;20.59;35.50;101470.81;7281159;19;153504;-50
2022/01/06 12:18:23;;;;;;;;;;;;;;;20.55;35.33;101472.53;7276673;19;152093;-50
2022/01/06 12:20:50;;;;;;;;;;;;;;;20.55;35.19;101472.53;7279905;19;153998;-50
2022/01/06 12:23:18;;;;;;;;;;;;;;;20.54;35.36;101470.88;7280062;19;155705;-50
2022/01/06 12:25:48;;;;;;;;;;;;;;;20.49;35.19;101470.09;7278275;19;151700;-49
2022/01/06 12:28:15;;;;;;;;;;;;;;;20.49;35.46;101456.88;7283025;19;152497;-50
2022/01/06 12:30:42;;;;;;;;;;;;;;;20.46;35.22;101456.63;7291100;19;153507;-50
2022/01/06 12:33:09;;;;;;;;;;;;;;;20.44;35.23;101456.94;7279830;19;153325;-51
2022/01/06 12:35:40;;;;;;;;;;;;;;;20.40;35.44;101458.66;7279968;19;153343;-50
2022/01/06 12:38:08;;;;;;;;;;;;;;;20.36;35.31;101447.19;7278826;19;152664;-51
2022/01/06 12:40:36;;;;;;;;;;;;;;;20.34;35.15;101429.81;7278893;19;152896;-50
2022/01/06 12:43:06;;;;;;;;;;;;;;;20.31;35.72;101421.13;7279641;19;154327;-50
2022/01/06 12:45:33;;;;;;;;;;;;;;;20.28;35.22;101422.53;7282063;19;152533;-50